sensor_id;sensor_type;location;lat;lon;timestamp;P1;durP1;ratioP1;P2;durP2;ratioP2
7080;SDS011;3582;51.506;11.948;2023-02-08T00:02:14;84.40;;;38.57;;
7080;SDS011;3582;51.506;11.948;2023-02-08T00:04:40;83.53;;;38.43;;
7080;SDS011;3582;51.506;11.948;2023-02-08T00:07:06;84.00;;;40.53;;
7080;SDS011;3582;51.506;11.948;2023-02-08T00:09:32;103.27;;;39.87;;
7080;SDS011;3582;51.506;11.948;2023-02-08T00:11:58;77.18;;;37.35;;
7080;SDS011;3582;51.506;11.948;2023-02-08T00:14:24;88.13;;;36.20;;
7080;SDS011;3582;51.506;11.948;2023-02-08T00:16:50;102.37;;;40.43;;
7080;SDS011;3582;51.506;11.948;2023-02-08T00:19:16;86.65;;;39.90;;
7080;SDS011;3582;51.506;11.948;2023-02-08T00:21:42;98.00;;;39.67;;
7080;SDS011;3582;51.506;11.948;2023-02-08T00:24:08;96.67;;;42.33;;
7080;SDS011;3582;51.506;11.948;2023-02-08T00:26:34;102.60;;;41.55;;
7080;SDS011;3582;51.506;11.948;2023-02-08T00:29:00;98.80;;;36.97;;
7080;SDS011;3582;51.506;11.948;2023-02-08T00:31:26;100.50;;;38.90;;
7080;SDS011;3582;51.506;11.948;2023-02-08T00:33:51;102.10;;;41.93;;
7080;SDS011;3582;51.506;11.948;2023-02-08T00:36:17;97.43;;;40.43;;
7080;SDS011;3582;51.506;11.948;2023-02-08T00:38:43;101.60;;;42.30;;
7080;SDS011;3582;51.506;11.948;2023-02-08T00:41:09;93.68;;;40.20;;
7080;SDS011;3582;51.506;11.948;2023-02-08T00:43:35;79.33;;;40.43;;
7080;SDS011;3582;51.506;11.948;2023-02-08T00:46:01;83.78;;;38.35;;
7080;SDS011;3582;51.506;11.948;2023-02-08T00:48:27;93.32;;;36.50;;
7080;SDS011;3582;51.506;11.948;2023-02-08T00:50:58;84.75;;;37.90;;
7080;SDS011;3582;51.506;11.948;2023-02-08T00:53:24;84.20;;;35.70;;
7080;SDS011;3582;51.506;11.948;2023-02-08T00:55:53;72.75;;;35.13;;
7080;SDS011;3582;51.506;11.948;2023-02-08T00:58:19;71.10;;;34.65;;
7080;SDS011;3582;51.506;11.948;2023-02-08T01:00:45;71.88;;;33.38;;
7080;SDS011;3582;51.506;11.948;2023-02-08T01:03:11;73.97;;;35.93;;
7080;SDS011;3582;51.506;11.948;2023-02-08T01:05:37;56.20;;;31.73;;
7080;SDS011;3582;51.506;11.948;2023-02-08T01:08:03;67.10;;;29.50;;
7080;SDS011;3582;51.506;11.948;2023-02-08T01:10:29;62.77;;;32.33;;
7080;SDS011;3582;51.506;11.948;2023-02-08T01:12:55;72.70;;;29.97;;
7080;SDS011;3582;51.506;11.948;2023-02-08T01:15:21;65.87;;;32.80;;
7080;SDS011;3582;51.506;11.948;2023-02-08T01:17:47;67.23;;;30.13;;
7080;SDS011;3582;51.506;11.948;2023-02-08T01:20:17;77.40;;;31.98;;
7080;SDS011;3582;51.506;11.948;2023-02-08T01:22:43;83.73;;;33.17;;
7080;SDS011;3582;51.506;11.948;2023-02-08T01:25:09;63.23;;;30.83;;
7080;SDS011;3582;51.506;11.948;2023-02-08T01:27:35;70.50;;;32.37;;
7080;SDS011;3582;51.506;11.948;2023-02-08T01:30:01;68.75;;;31.95;;
7080;SDS011;3582;51.506;11.948;2023-02-08T01:32:27;69.60;;;34.93;;
7080;SDS011;3582;51.506;11.948;2023-02-08T01:34:53;74.63;;;30.20;;
7080;SDS011;3582;51.506;11.948;2023-02-08T01:37:19;86.67;;;33.80;;
7080;SDS011;3582;51.506;11.948;2023-02-08T01:39:45;68.60;;;33.20;;
7080;SDS011;3582;51.506;11.948;2023-02-08T01:42:12;73.67;;;32.80;;
7080;SDS011;3582;51.506;11.948;2023-02-08T01:47:23;64.97;;;31.80;;
7080;SDS011;3582;51.506;11.948;2023-02-08T01:49:49;78.33;;;31.50;;
7080;SDS011;3582;51.506;11.948;2023-02-08T01:52:18;71.07;;;28.60;;
7080;SDS011;3582;51.506;11.948;2023-02-08T01:54:47;54.65;;;27.85;;
7080;SDS011;3582;51.506;11.948;2023-02-08T01:57:14;63.67;;;29.83;;
7080;SDS011;3582;51.506;11.948;2023-02-08T01:59:45;62.83;;;28.63;;
7080;SDS011;3582;51.506;11.948;2023-02-08T02:02:13;52.83;;;25.92;;
7080;SDS011;3582;51.506;11.948;2023-02-08T02:04:40;59.50;;;27.25;;
7080;SDS011;3582;51.506;11.948;2023-02-08T02:07:07;54.38;;;27.88;;
7080;SDS011;3582;51.506;11.948;2023-02-08T02:09:41;68.18;;;30.67;;
7080;SDS011;3582;51.506;11.948;2023-02-08T02:12:08;70.55;;;27.20;;
7080;SDS011;3582;51.506;11.948;2023-02-08T02:14:35;55.83;;;28.38;;
7080;SDS011;3582;51.506;11.948;2023-02-08T02:17:01;66.68;;;35.50;;
7080;SDS011;3582;51.506;11.948;2023-02-08T02:27:25;64.32;;;32.47;;
7080;SDS011;3582;51.506;11.948;2023-02-08T02:30:04;80.05;;;34.10;;
7080;SDS011;3582;51.506;11.948;2023-02-08T02:32:43;69.32;;;33.50;;
7080;SDS011;3582;51.506;11.948;2023-02-08T02:35:15;67.18;;;32.10;;
7080;SDS011;3582;51.506;11.948;2023-02-08T02:40:35;67.03;;;33.40;;
7080;SDS011;3582;51.506;11.948;2023-02-08T02:45:58;93.10;;;41.17;;
7080;SDS011;3582;51.506;11.948;2023-02-08T02:51:02;81.47;;;36.30;;
7080;SDS011;3582;51.506;11.948;2023-02-08T02:56:04;75.10;;;32.55;;
7080;SDS011;3582;51.506;11.948;2023-02-08T02:58:32;106.18;;;40.67;;
7080;SDS011;3582;51.506;11.948;2023-02-08T03:00:59;82.45;;;39.55;;
7080;SDS011;3582;51.506;11.948;2023-02-08T03:03:26;78.25;;;37.28;;
7080;SDS011;3582;51.506;11.948;2023-02-08T03:05:53;82.40;;;36.53;;
7080;SDS011;3582;51.506;11.948;2023-02-08T03:13:38;69.70;;;37.47;;
7080;SDS011;3582;51.506;11.948;2023-02-08T03:16:17;69.18;;;33.55;;
7080;SDS011;3582;51.506;11.948;2023-02-08T03:18:57;77.32;;;32.75;;
7080;SDS011;3582;51.506;11.948;2023-02-08T03:21:31;74.60;;;37.45;;
7080;SDS011;3582;51.506;11.948;2023-02-08T03:27:24;70.00;;;34.60;;
7080;SDS011;3582;51.506;11.948;2023-02-08T03:29:33;79.68;;;36.53;;
7080;SDS011;3582;51.506;11.948;2023-02-08T03:32:05;85.13;;;38.63;;
7080;SDS011;3582;51.506;11.948;2023-02-08T03:34:51;82.57;;;38.88;;
7080;SDS011;3582;51.506;11.948;2023-02-08T03:37:19;80.78;;;35.65;;
7080;SDS011;3582;51.506;11.948;2023-02-08T03:39:46;79.47;;;38.22;;
7080;SDS011;3582;51.506;11.948;2023-02-08T03:42:14;102.43;;;42.58;;
7080;SDS011;3582;51.506;11.948;2023-02-08T03:44:43;90.15;;;35.92;;
7080;SDS011;3582;51.506;11.948;2023-02-08T03:49:36;77.60;;;37.33;;
7080;SDS011;3582;51.506;11.948;2023-02-08T03:52:04;69.80;;;37.83;;
7080;SDS011;3582;51.506;11.948;2023-02-08T03:54:33;75.60;;;41.05;;
7080;SDS011;3582;51.506;11.948;2023-02-08T03:57:09;80.22;;;37.70;;
7080;SDS011;3582;51.506;11.948;2023-02-08T03:59:38;86.68;;;39.22;;
7080;SDS011;3582;51.506;11.948;2023-02-08T04:02:05;73.00;;;37.75;;
7080;SDS011;3582;51.506;11.948;2023-02-08T04:04:33;87.88;;;37.42;;
7080;SDS011;3582;51.506;11.948;2023-02-08T04:06:59;78.38;;;38.13;;
7080;SDS011;3582;51.506;11.948;2023-02-08T04:09:25;95.20;;;40.70;;
7080;SDS011;3582;51.506;11.948;2023-02-08T04:11:51;84.27;;;38.07;;
7080;SDS011;3582;51.506;11.948;2023-02-08T04:14:17;83.13;;;36.90;;
7080;SDS011;3582;51.506;11.948;2023-02-08T04:16:43;70.60;;;36.73;;
7080;SDS011;3582;51.506;11.948;2023-02-08T04:19:09;69.93;;;34.83;;
7080;SDS011;3582;51.506;11.948;2023-02-08T04:21:35;91.07;;;35.75;;
7080;SDS011;3582;51.506;11.948;2023-02-08T04:24:01;68.50;;;37.20;;
7080;SDS011;3582;51.506;11.948;2023-02-08T04:26:27;84.35;;;40.22;;
7080;SDS011;3582;51.506;11.948;2023-02-08T04:28:53;75.40;;;40.67;;
7080;SDS011;3582;51.506;11.948;2023-02-08T04:31:19;69.93;;;39.23;;
7080;SDS011;3582;51.506;11.948;2023-02-08T04:33:45;68.13;;;40.10;;
7080;SDS011;3582;51.506;11.948;2023-02-08T04:36:11;86.70;;;41.37;;
7080;SDS011;3582;51.506;11.948;2023-02-08T04:38:36;86.87;;;39.87;;
7080;SDS011;3582;51.506;11.948;2023-02-08T04:41:02;79.13;;;37.42;;
7080;SDS011;3582;51.506;11.948;2023-02-08T04:43:28;82.47;;;39.83;;
7080;SDS011;3582;51.506;11.948;2023-02-08T04:45:54;77.67;;;35.10;;
7080;SDS011;3582;51.506;11.948;2023-02-08T04:48:20;78.33;;;39.77;;
7080;SDS011;3582;51.506;11.948;2023-02-08T04:50:46;77.37;;;38.90;;
7080;SDS011;3582;51.506;11.948;2023-02-08T04:53:12;85.73;;;42.20;;
7080;SDS011;3582;51.506;11.948;2023-02-08T04:55:38;91.00;;;44.70;;
7080;SDS011;3582;51.506;11.948;2023-02-08T04:58:04;88.10;;;42.20;;
7080;SDS011;3582;51.506;11.948;2023-02-08T05:00:30;79.73;;;38.97;;
7080;SDS011;3582;51.506;11.948;2023-02-08T05:02:57;91.13;;;41.45;;
7080;SDS011;3582;51.506;11.948;2023-02-08T05:05:23;85.03;;;38.65;;
7080;SDS011;3582;51.506;11.948;2023-02-08T05:07:49;80.50;;;43.90;;
7080;SDS011;3582;51.506;11.948;2023-02-08T05:10:15;98.20;;;42.85;;
7080;SDS011;3582;51.506;11.948;2023-02-08T05:12:41;99.03;;;44.15;;
7080;SDS011;3582;51.506;11.948;2023-02-08T05:15:07;81.03;;;40.83;;
7080;SDS011;3582;51.506;11.948;2023-02-08T05:17:33;93.10;;;42.35;;
7080;SDS011;3582;51.506;11.948;2023-02-08T05:20:00;87.85;;;43.85;;
7080;SDS011;3582;51.506;11.948;2023-02-08T05:22:26;92.43;;;44.90;;
7080;SDS011;3582;51.506;11.948;2023-02-08T05:24:52;103.07;;;43.30;;
7080;SDS011;3582;51.506;11.948;2023-02-08T05:27:18;95.82;;;43.30;;
7080;SDS011;3582;51.506;11.948;2023-02-08T05:29:44;99.15;;;45.65;;
7080;SDS011;3582;51.506;11.948;2023-02-08T05:32:10;97.90;;;45.40;;
7080;SDS011;3582;51.506;11.948;2023-02-08T05:34:37;88.40;;;44.97;;
7080;SDS011;3582;51.506;11.948;2023-02-08T05:37:03;96.78;;;42.17;;
7080;SDS011;3582;51.506;11.948;2023-02-08T05:39:29;94.07;;;41.72;;
7080;SDS011;3582;51.506;11.948;2023-02-08T05:41:55;96.30;;;39.90;;
7080;SDS011;3582;51.506;11.948;2023-02-08T05:44:21;89.67;;;42.40;;
7080;SDS011;3582;51.506;11.948;2023-02-08T05:46:46;85.43;;;39.60;;
7080;SDS011;3582;51.506;11.948;2023-02-08T05:49:12;85.47;;;39.95;;
7080;SDS011;3582;51.506;11.948;2023-02-08T05:51:38;83.45;;;39.60;;
7080;SDS011;3582;51.506;11.948;2023-02-08T05:54:04;74.50;;;36.57;;
7080;SDS011;3582;51.506;11.948;2023-02-08T05:56:30;84.10;;;41.97;;
7080;SDS011;3582;51.506;11.948;2023-02-08T05:58:58;86.15;;;40.72;;
7080;SDS011;3582;51.506;11.948;2023-02-08T06:01:25;71.32;;;37.33;;
7080;SDS011;3582;51.506;11.948;2023-02-08T06:03:51;72.25;;;37.85;;
7080;SDS011;3582;51.506;11.948;2023-02-08T06:06:18;75.35;;;35.20;;
7080;SDS011;3582;51.506;11.948;2023-02-08T06:08:44;73.38;;;37.72;;
7080;SDS011;3582;51.506;11.948;2023-02-08T06:11:10;80.53;;;39.97;;
7080;SDS011;3582;51.506;11.948;2023-02-08T06:13:35;82.33;;;39.93;;
7080;SDS011;3582;51.506;11.948;2023-02-08T06:16:03;88.38;;;39.85;;
7080;SDS011;3582;51.506;11.948;2023-02-08T06:18:29;85.28;;;41.35;;
7080;SDS011;3582;51.506;11.948;2023-02-08T06:20:54;88.17;;;41.53;;
7080;SDS011;3582;51.506;11.948;2023-02-08T06:23:21;78.30;;;40.07;;
7080;SDS011;3582;51.506;11.948;2023-02-08T06:25:47;76.28;;;38.72;;
7080;SDS011;3582;51.506;11.948;2023-02-08T06:28:13;86.72;;;41.00;;
7080;SDS011;3582;51.506;11.948;2023-02-08T06:30:39;72.67;;;35.47;;
7080;SDS011;3582;51.506;11.948;2023-02-08T06:33:05;92.90;;;42.20;;
7080;SDS011;3582;51.506;11.948;2023-02-08T06:35:31;76.17;;;38.10;;
7080;SDS011;3582;51.506;11.948;2023-02-08T06:37:57;76.90;;;38.65;;
7080;SDS011;3582;51.506;11.948;2023-02-08T06:40:23;74.32;;;40.65;;
7080;SDS011;3582;51.506;11.948;2023-02-08T06:42:49;91.82;;;40.65;;
7080;SDS011;3582;51.506;11.948;2023-02-08T06:45:15;90.57;;;42.43;;
7080;SDS011;3582;51.506;11.948;2023-02-08T06:47:41;90.43;;;41.70;;
7080;SDS011;3582;51.506;11.948;2023-02-08T06:50:08;68.87;;;35.93;;
7080;SDS011;3582;51.506;11.948;2023-02-08T06:52:34;84.70;;;42.38;;
7080;SDS011;3582;51.506;11.948;2023-02-08T06:54:59;86.13;;;41.27;;
7080;SDS011;3582;51.506;11.948;2023-02-08T06:57:25;72.87;;;38.50;;
7080;SDS011;3582;51.506;11.948;2023-02-08T06:59:51;77.13;;;37.67;;
7080;SDS011;3582;51.506;11.948;2023-02-08T07:02:18;96.13;;;45.50;;
7080;SDS011;3582;51.506;11.948;2023-02-08T07:04:44;84.43;;;39.35;;
7080;SDS011;3582;51.506;11.948;2023-02-08T07:07:11;83.53;;;43.40;;
7080;SDS011;3582;51.506;11.948;2023-02-08T07:09:37;90.80;;;42.67;;
7080;SDS011;3582;51.506;11.948;2023-02-08T07:12:03;95.32;;;41.25;;
7080;SDS011;3582;51.506;11.948;2023-02-08T07:14:30;81.28;;;39.55;;
7080;SDS011;3582;51.506;11.948;2023-02-08T07:16:56;95.47;;;41.20;;
7080;SDS011;3582;51.506;11.948;2023-02-08T07:19:22;99.07;;;41.27;;
7080;SDS011;3582;51.506;11.948;2023-02-08T07:21:48;99.80;;;42.88;;
7080;SDS011;3582;51.506;11.948;2023-02-08T07:24:14;105.60;;;51.33;;
7080;SDS011;3582;51.506;11.948;2023-02-08T07:26:39;83.67;;;41.53;;
7080;SDS011;3582;51.506;11.948;2023-02-08T07:29:05;77.33;;;41.53;;
7080;SDS011;3582;51.506;11.948;2023-02-08T07:31:31;86.07;;;40.87;;
7080;SDS011;3582;51.506;11.948;2023-02-08T07:33:58;78.97;;;38.30;;
7080;SDS011;3582;51.506;11.948;2023-02-08T07:36:24;80.90;;;37.05;;
7080;SDS011;3582;51.506;11.948;2023-02-08T07:38:49;81.10;;;42.37;;
7080;SDS011;3582;51.506;11.948;2023-02-08T07:41:15;85.37;;;38.67;;
7080;SDS011;3582;51.506;11.948;2023-02-08T07:43:41;75.40;;;41.03;;
7080;SDS011;3582;51.506;11.948;2023-02-08T07:46:08;72.60;;;41.40;;
7080;SDS011;3582;51.506;11.948;2023-02-08T07:48:35;83.10;;;43.25;;
7080;SDS011;3582;51.506;11.948;2023-02-08T07:51:01;85.60;;;42.95;;
7080;SDS011;3582;51.506;11.948;2023-02-08T07:53:27;91.43;;;45.08;;
7080;SDS011;3582;51.506;11.948;2023-02-08T07:55:53;84.80;;;40.90;;
7080;SDS011;3582;51.506;11.948;2023-02-08T07:58:19;90.07;;;44.37;;
7080;SDS011;3582;51.506;11.948;2023-02-08T08:00:45;81.40;;;42.72;;
7080;SDS011;3582;51.506;11.948;2023-02-08T08:03:11;86.27;;;42.13;;
7080;SDS011;3582;51.506;11.948;2023-02-08T08:05:38;74.37;;;39.93;;
7080;SDS011;3582;51.506;11.948;2023-02-08T08:08:05;87.40;;;44.15;;
7080;SDS011;3582;51.506;11.948;2023-02-08T08:10:31;78.07;;;41.67;;
7080;SDS011;3582;51.506;11.948;2023-02-08T08:12:57;77.57;;;43.30;;
7080;SDS011;3582;51.506;11.948;2023-02-08T08:15:23;71.30;;;41.33;;
7080;SDS011;3582;51.506;11.948;2023-02-08T08:17:48;89.73;;;43.73;;
7080;SDS011;3582;51.506;11.948;2023-02-08T08:20:14;97.43;;;43.73;;
7080;SDS011;3582;51.506;11.948;2023-02-08T08:22:40;89.35;;;46.00;;
7080;SDS011;3582;51.506;11.948;2023-02-08T08:25:06;76.33;;;43.30;;
7080;SDS011;3582;51.506;11.948;2023-02-08T08:27:33;79.57;;;42.75;;
7080;SDS011;3582;51.506;11.948;2023-02-08T08:29:59;89.72;;;42.47;;
7080;SDS011;3582;51.506;11.948;2023-02-08T08:32:25;85.57;;;41.55;;
7080;SDS011;3582;51.506;11.948;2023-02-08T08:34:51;76.93;;;39.47;;
7080;SDS011;3582;51.506;11.948;2023-02-08T08:37:17;80.47;;;42.90;;
7080;SDS011;3582;51.506;11.948;2023-02-08T08:39:43;68.50;;;39.87;;
7080;SDS011;3582;51.506;11.948;2023-02-08T08:42:09;85.15;;;41.75;;
7080;SDS011;3582;51.506;11.948;2023-02-08T08:44:35;74.83;;;41.03;;
7080;SDS011;3582;51.506;11.948;2023-02-08T08:47:01;70.88;;;43.47;;
7080;SDS011;3582;51.506;11.948;2023-02-08T08:49:27;73.70;;;41.17;;
7080;SDS011;3582;51.506;11.948;2023-02-08T08:51:53;71.75;;;37.45;;
7080;SDS011;3582;51.506;11.948;2023-02-08T08:54:20;70.00;;;38.45;;
7080;SDS011;3582;51.506;11.948;2023-02-08T08:56:46;79.78;;;42.45;;
7080;SDS011;3582;51.506;11.948;2023-02-08T08:59:12;79.18;;;40.17;;
7080;SDS011;3582;51.506;11.948;2023-02-08T09:01:38;66.55;;;40.15;;
7080;SDS011;3582;51.506;11.948;2023-02-08T09:04:06;77.00;;;40.83;;
7080;SDS011;3582;51.506;11.948;2023-02-08T09:06:32;63.22;;;38.65;;
7080;SDS011;3582;51.506;11.948;2023-02-08T09:08:59;73.70;;;39.78;;
7080;SDS011;3582;51.506;11.948;2023-02-08T09:11:25;80.22;;;44.45;;
7080;SDS011;3582;51.506;11.948;2023-02-08T09:13:51;64.85;;;38.13;;
7080;SDS011;3582;51.506;11.948;2023-02-08T09:16:20;83.85;;;40.83;;
7080;SDS011;3582;51.506;11.948;2023-02-08T09:18:46;74.78;;;41.45;;
7080;SDS011;3582;51.506;11.948;2023-02-08T09:21:16;74.67;;;40.13;;
7080;SDS011;3582;51.506;11.948;2023-02-08T09:23:42;76.43;;;37.75;;
7080;SDS011;3582;51.506;11.948;2023-02-08T09:26:09;79.32;;;39.70;;
7080;SDS011;3582;51.506;11.948;2023-02-08T09:28:36;90.97;;;42.70;;
7080;SDS011;3582;51.506;11.948;2023-02-08T09:31:12;78.85;;;41.50;;
7080;SDS011;3582;51.506;11.948;2023-02-08T09:33:39;79.10;;;42.10;;
7080;SDS011;3582;51.506;11.948;2023-02-08T09:36:05;73.70;;;39.37;;
7080;SDS011;3582;51.506;11.948;2023-02-08T09:38:32;88.20;;;40.28;;
7080;SDS011;3582;51.506;11.948;2023-02-08T09:43:30;73.23;;;39.67;;
7080;SDS011;3582;51.506;11.948;2023-02-08T09:46:04;88.90;;;39.28;;
7080;SDS011;3582;51.506;11.948;2023-02-08T09:48:35;64.90;;;38.10;;
7080;SDS011;3582;51.506;11.948;2023-02-08T09:51:09;75.85;;;38.40;;
7080;SDS011;3582;51.506;11.948;2023-02-08T09:53:47;64.88;;;38.70;;
7080;SDS011;3582;51.506;11.948;2023-02-08T09:56:15;84.90;;;39.72;;
7080;SDS011;3582;51.506;11.948;2023-02-08T09:58:53;71.43;;;39.00;;
7080;SDS011;3582;51.506;11.948;2023-02-08T10:01:20;69.22;;;40.60;;
7080;SDS011;3582;51.506;11.948;2023-02-08T10:03:47;70.05;;;42.05;;
7080;SDS011;3582;51.506;11.948;2023-02-08T10:06:15;75.30;;;38.08;;
7080;SDS011;3582;51.506;11.948;2023-02-08T10:08:43;65.85;;;36.53;;
7080;SDS011;3582;51.506;11.948;2023-02-08T10:19:25;79.72;;;40.30;;
7080;SDS011;3582;51.506;11.948;2023-02-08T10:21:59;63.75;;;35.35;;
7080;SDS011;3582;51.506;11.948;2023-02-08T10:24:40;59.90;;;36.45;;
7080;SDS011;3582;51.506;11.948;2023-02-08T10:27:11;70.28;;;37.20;;
7080;SDS011;3582;51.506;11.948;2023-02-08T10:29:49;68.35;;;39.80;;
7080;SDS011;3582;51.506;11.948;2023-02-08T10:35:02;58.88;;;36.20;;
7080;SDS011;3582;51.506;11.948;2023-02-08T10:37:32;91.00;;;41.15;;
7080;SDS011;3582;51.506;11.948;2023-02-08T10:40:14;82.65;;;39.40;;
7080;SDS011;3582;51.506;11.948;2023-02-08T10:42:41;92.75;;;45.05;;
7080;SDS011;3582;51.506;11.948;2023-02-08T10:47:43;73.32;;;42.42;;
7080;SDS011;3582;51.506;11.948;2023-02-08T10:52:56;77.05;;;43.03;;
7080;SDS011;3582;51.506;11.948;2023-02-08T10:55:22;75.83;;;42.90;;
7080;SDS011;3582;51.506;11.948;2023-02-08T10:57:49;68.15;;;42.55;;
7080;SDS011;3582;51.506;11.948;2023-02-08T11:00:18;77.00;;;42.10;;
7080;SDS011;3582;51.506;11.948;2023-02-08T11:02:44;86.28;;;48.35;;
7080;SDS011;3582;51.506;11.948;2023-02-08T11:05:21;91.68;;;45.60;;
7080;SDS011;3582;51.506;11.948;2023-02-08T11:10:30;78.28;;;44.60;;
7080;SDS011;3582;51.506;11.948;2023-02-08T11:13:01;92.13;;;47.27;;
7080;SDS011;3582;51.506;11.948;2023-02-08T11:18:01;86.63;;;46.45;;
7080;SDS011;3582;51.506;11.948;2023-02-08T11:20:33;85.82;;;48.00;;
7080;SDS011;3582;51.506;11.948;2023-02-08T11:23:00;83.57;;;44.92;;
7080;SDS011;3582;51.506;11.948;2023-02-08T11:25:37;88.18;;;44.92;;
7080;SDS011;3582;51.506;11.948;2023-02-08T11:28:03;94.00;;;46.08;;
7080;SDS011;3582;51.506;11.948;2023-02-08T11:30:29;74.15;;;42.40;;
7080;SDS011;3582;51.506;11.948;2023-02-08T11:33:12;76.20;;;44.75;;
7080;SDS011;3582;51.506;11.948;2023-02-08T11:35:39;74.60;;;45.20;;
7080;SDS011;3582;51.506;11.948;2023-02-08T11:38:05;74.78;;;43.13;;
7080;SDS011;3582;51.506;11.948;2023-02-08T11:40:35;75.85;;;41.45;;
7080;SDS011;3582;51.506;11.948;2023-02-08T11:43:02;71.50;;;41.28;;
7080;SDS011;3582;51.506;11.948;2023-02-08T11:47:54;72.67;;;42.47;;
7080;SDS011;3582;51.506;11.948;2023-02-08T11:52:56;68.35;;;38.97;;
7080;SDS011;3582;51.506;11.948;2023-02-08T11:55:24;59.92;;;40.08;;
7080;SDS011;3582;51.506;11.948;2023-02-08T12:00:20;61.13;;;38.45;;
7080;SDS011;3582;51.506;11.948;2023-02-08T12:02:47;68.22;;;40.42;;
7080;SDS011;3582;51.506;11.948;2023-02-08T12:05:15;65.00;;;40.20;;
7080;SDS011;3582;51.506;11.948;2023-02-08T12:07:59;62.33;;;38.45;;
7080;SDS011;3582;51.506;11.948;2023-02-08T12:15:41;64.80;;;41.30;;
7080;SDS011;3582;51.506;11.948;2023-02-08T12:20:41;66.93;;;41.50;;
7080;SDS011;3582;51.506;11.948;2023-02-08T12:23:30;78.57;;;43.35;;
7080;SDS011;3582;51.506;11.948;2023-02-08T12:26:17;76.00;;;43.13;;
7080;SDS011;3582;51.506;11.948;2023-02-08T12:34:18;89.05;;;45.72;;
7080;SDS011;3582;51.506;11.948;2023-02-08T12:39:33;78.67;;;40.47;;
7080;SDS011;3582;51.506;11.948;2023-02-08T12:42:22;74.88;;;41.25;;
7080;SDS011;3582;51.506;11.948;2023-02-08T12:54:56;70.85;;;37.60;;
7080;SDS011;3582;51.506;11.948;2023-02-08T12:57:23;86.93;;;45.10;;
7080;SDS011;3582;51.506;11.948;2023-02-08T12:59:51;64.65;;;41.00;;
7080;SDS011;3582;51.506;11.948;2023-02-08T13:04:49;76.93;;;44.88;;
7080;SDS011;3582;51.506;11.948;2023-02-08T13:07:28;72.82;;;44.05;;
7080;SDS011;3582;51.506;11.948;2023-02-08T13:12:23;67.67;;;38.87;;
7080;SDS011;3582;51.506;11.948;2023-02-08T13:14:51;70.22;;;42.65;;
7080;SDS011;3582;51.506;11.948;2023-02-08T13:17:20;74.38;;;40.20;;
7080;SDS011;3582;51.506;11.948;2023-02-08T13:19:48;65.25;;;39.08;;
7080;SDS011;3582;51.506;11.948;2023-02-08T13:22:15;71.18;;;39.08;;
7080;SDS011;3582;51.506;11.948;2023-02-08T13:24:42;57.13;;;37.28;;
7080;SDS011;3582;51.506;11.948;2023-02-08T13:27:15;72.32;;;40.78;;
7080;SDS011;3582;51.506;11.948;2023-02-08T13:29:43;54.35;;;36.78;;
7080;SDS011;3582;51.506;11.948;2023-02-08T13:32:18;55.90;;;36.60;;
7080;SDS011;3582;51.506;11.948;2023-02-08T13:34:52;49.67;;;33.47;;
7080;SDS011;3582;51.506;11.948;2023-02-08T13:37:25;49.97;;;36.00;;
7080;SDS011;3582;51.506;11.948;2023-02-08T13:40:02;53.00;;;35.88;;
7080;SDS011;3582;51.506;11.948;2023-02-08T13:42:34;54.38;;;33.80;;
7080;SDS011;3582;51.506;11.948;2023-02-08T13:45:00;60.60;;;35.88;;
7080;SDS011;3582;51.506;11.948;2023-02-08T13:47:27;55.70;;;36.80;;
7080;SDS011;3582;51.506;11.948;2023-02-08T13:49:56;59.38;;;34.08;;
7080;SDS011;3582;51.506;11.948;2023-02-08T14:03:19;50.72;;;31.35;;
7080;SDS011;3582;51.506;11.948;2023-02-08T14:05:46;44.22;;;29.08;;
7080;SDS011;3582;51.506;11.948;2023-02-08T14:08:21;50.47;;;29.17;;
7080;SDS011;3582;51.506;11.948;2023-02-08T14:10:50;49.28;;;27.73;;
7080;SDS011;3582;51.506;11.948;2023-02-08T14:13:27;55.05;;;28.67;;
7080;SDS011;3582;51.506;11.948;2023-02-08T14:18:38;43.55;;;31.67;;
7080;SDS011;3582;51.506;11.948;2023-02-08T14:21:04;44.78;;;27.58;;
7080;SDS011;3582;51.506;11.948;2023-02-08T14:23:31;49.60;;;27.27;;
7080;SDS011;3582;51.506;11.948;2023-02-08T14:26:01;44.05;;;29.20;;
7080;SDS011;3582;51.506;11.948;2023-02-08T14:28:29;59.92;;;30.88;;
7080;SDS011;3582;51.506;11.948;2023-02-08T14:30:57;55.45;;;31.38;;
7080;SDS011;3582;51.506;11.948;2023-02-08T14:33:26;62.72;;;30.95;;
7080;SDS011;3582;51.506;11.948;2023-02-08T14:35:57;38.28;;;26.02;;
7080;SDS011;3582;51.506;11.948;2023-02-08T14:40:53;40.03;;;28.80;;
7080;SDS011;3582;51.506;11.948;2023-02-08T14:43:27;53.88;;;29.88;;
7080;SDS011;3582;51.506;11.948;2023-02-08T14:45:56;63.38;;;33.28;;
7080;SDS011;3582;51.506;11.948;2023-02-08T14:48:23;43.60;;;28.90;;
7080;SDS011;3582;51.506;11.948;2023-02-08T14:53:17;42.70;;;29.43;;
7080;SDS011;3582;51.506;11.948;2023-02-08T14:55:46;48.40;;;30.42;;
7080;SDS011;3582;51.506;11.948;2023-02-08T14:58:14;41.33;;;29.95;;
7080;SDS011;3582;51.506;11.948;2023-02-08T15:00:46;44.35;;;27.60;;
7080;SDS011;3582;51.506;11.948;2023-02-08T15:03:15;62.22;;;33.45;;
7080;SDS011;3582;51.506;11.948;2023-02-08T15:05:54;48.38;;;28.88;;
7080;SDS011;3582;51.506;11.948;2023-02-08T15:08:23;36.70;;;26.27;;
7080;SDS011;3582;51.506;11.948;2023-02-08T15:10:49;40.45;;;27.48;;
7080;SDS011;3582;51.506;11.948;2023-02-08T15:13:21;40.80;;;27.60;;
7080;SDS011;3582;51.506;11.948;2023-02-08T15:15:52;42.35;;;25.15;;
7080;SDS011;3582;51.506;11.948;2023-02-08T15:18:20;33.63;;;25.00;;
7080;SDS011;3582;51.506;11.948;2023-02-08T15:21:03;40.75;;;25.30;;
7080;SDS011;3582;51.506;11.948;2023-02-08T15:23:29;49.25;;;27.08;;
7080;SDS011;3582;51.506;11.948;2023-02-08T15:25:59;37.58;;;26.00;;
7080;SDS011;3582;51.506;11.948;2023-02-08T15:28:27;46.53;;;28.10;;
7080;SDS011;3582;51.506;11.948;2023-02-08T15:31:06;38.13;;;26.55;;
7080;SDS011;3582;51.506;11.948;2023-02-08T15:33:33;39.25;;;24.73;;
7080;SDS011;3582;51.506;11.948;2023-02-08T15:36:04;36.10;;;26.40;;
7080;SDS011;3582;51.506;11.948;2023-02-08T15:38:30;38.92;;;27.00;;
7080;SDS011;3582;51.506;11.948;2023-02-08T15:41:08;42.88;;;29.27;;
7080;SDS011;3582;51.506;11.948;2023-02-08T15:43:36;39.92;;;28.70;;
7080;SDS011;3582;51.506;11.948;2023-02-08T15:46:03;46.25;;;30.58;;
7080;SDS011;3582;51.506;11.948;2023-02-08T15:48:30;44.95;;;29.65;;
7080;SDS011;3582;51.506;11.948;2023-02-08T15:50:56;49.53;;;32.45;;
7080;SDS011;3582;51.506;11.948;2023-02-08T15:53:24;46.92;;;30.50;;
7080;SDS011;3582;51.506;11.948;2023-02-08T15:55:54;44.85;;;30.83;;
7080;SDS011;3582;51.506;11.948;2023-02-08T15:58:34;49.28;;;33.00;;
7080;SDS011;3582;51.506;11.948;2023-02-08T16:01:03;43.38;;;31.13;;
7080;SDS011;3582;51.506;11.948;2023-02-08T16:03:30;56.58;;;32.63;;
7080;SDS011;3582;51.506;11.948;2023-02-08T16:05:57;50.30;;;31.95;;
7080;SDS011;3582;51.506;11.948;2023-02-08T16:08:25;49.47;;;32.72;;
7080;SDS011;3582;51.506;11.948;2023-02-08T16:10:52;48.65;;;33.25;;
7080;SDS011;3582;51.506;11.948;2023-02-08T16:13:26;57.50;;;36.00;;
7080;SDS011;3582;51.506;11.948;2023-02-08T16:15:54;62.67;;;36.33;;
7080;SDS011;3582;51.506;11.948;2023-02-08T16:21:17;53.10;;;35.50;;
7080;SDS011;3582;51.506;11.948;2023-02-08T16:23:48;56.17;;;37.00;;
7080;SDS011;3582;51.506;11.948;2023-02-08T16:26:19;58.85;;;39.92;;
7080;SDS011;3582;51.506;11.948;2023-02-08T16:28:53;65.78;;;43.90;;
7080;SDS011;3582;51.506;11.948;2023-02-08T16:31:23;59.67;;;38.05;;
7080;SDS011;3582;51.506;11.948;2023-02-08T16:33:55;62.75;;;36.45;;
7080;SDS011;3582;51.506;11.948;2023-02-08T16:36:22;67.32;;;42.28;;